createdAt,value
2023-05-04T00:00:07.876Z,1020.12
2023-05-04T00:01:07.829Z,1020.08
2023-05-04T00:02:08.005Z,1020.12
2023-05-04T00:03:08.250Z,1020.09
2023-05-04T00:04:08.720Z,1020.14
2023-05-04T00:05:08.658Z,1020.13
2023-05-04T00:06:08.930Z,1020.14
2023-05-04T00:07:09.111Z,1020.13
2023-05-04T00:08:09.302Z,1020.11
2023-05-04T00:09:09.450Z,1020.08
2023-05-04T00:10:09.753Z,1020.07
2023-05-04T00:11:09.933Z,1020.08
2023-05-04T00:12:10.151Z,1020.04
2023-05-04T00:13:10.344Z,1020.06
2023-05-04T00:14:10.473Z,1020.05
2023-05-04T00:15:10.745Z,1020.05
2023-05-04T00:16:11.246Z,1020.04
2023-05-04T00:17:11.192Z,1020.05
2023-05-04T00:18:11.358Z,1020.05
2023-05-04T00:19:11.497Z,1020.05
2023-05-04T00:20:11.815Z,1020.05
2023-05-04T00:21:11.997Z,1020.05
2023-05-04T00:22:12.206Z,1020.02
2023-05-04T00:23:12.382Z,1020.02
2023-05-04T00:24:12.557Z,1020.04
2023-05-04T00:25:12.784Z,1020.04
2023-05-04T00:26:12.927Z,1020.02
2023-05-04T00:27:13.107Z,1020.04
2023-05-04T00:28:13.299Z,1020.02
2023-05-04T00:29:13.509Z,1020.02
2023-05-04T00:30:13.668Z,1020.02
2023-05-04T00:31:13.869Z,1020.05
2023-05-04T00:32:14.033Z,1020.03
2023-05-04T00:33:14.222Z,1020.02
2023-05-04T00:34:14.373Z,1019.98
2023-05-04T00:35:14.532Z,1019.98
2023-05-04T00:36:14.846Z,1019.98
2023-05-04T00:37:15.010Z,1019.98
2023-05-04T00:38:15.190Z,1020.00
2023-05-04T00:39:15.333Z,1019.99
2023-05-04T00:40:15.653Z,1019.99
2023-05-04T00:41:15.797Z,1020.00
2023-05-04T00:42:15.990Z,1020.01
2023-05-04T00:43:16.194Z,1020.02
2023-05-04T00:44:16.476Z,1019.98
2023-05-04T00:45:16.643Z,1020.00
2023-05-04T00:46:16.795Z,1019.98
2023-05-04T00:47:17.256Z,1019.98
2023-05-04T00:48:17.294Z,1020.01
2023-05-04T00:49:17.472Z,1020.02
2023-05-04T00:50:17.757Z,1019.99
2023-05-04T00:51:17.978Z,1020.00
2023-05-04T00:52:18.137Z,1020.01
2023-05-04T00:53:18.302Z,1019.99
2023-05-04T00:54:18.609Z,1019.97
2023-05-04T00:55:18.797Z,1019.95
2023-05-04T00:56:18.955Z,1019.95
2023-05-04T00:57:19.152Z,1019.91
2023-05-04T00:58:19.342Z,1019.95
2023-05-04T00:59:19.524Z,1019.91
2023-05-04T01:00:19.726Z,1019.87
2023-05-04T01:01:19.966Z,1019.92
2023-05-04T01:02:20.159Z,1019.90
2023-05-04T01:03:20.437Z,1019.94
2023-05-04T01:04:20.577Z,1019.92
2023-05-04T01:05:20.753Z,1019.88
2023-05-04T01:06:20.920Z,1019.89
2023-05-04T01:07:21.198Z,1019.91
2023-05-04T01:08:21.363Z,1019.91
2023-05-04T01:09:21.526Z,1019.87
2023-05-04T01:10:21.830Z,1019.85
2023-05-04T01:11:22.003Z,1019.87
2023-05-04T01:12:22.197Z,1019.84
2023-05-04T01:13:22.388Z,1019.83
2023-05-04T01:14:22.544Z,1019.85
2023-05-04T01:15:22.834Z,1019.78
2023-05-04T01:16:23.005Z,1019.83
2023-05-04T01:17:23.306Z,1019.80
2023-05-04T01:18:23.471Z,1019.78
2023-05-04T01:19:23.655Z,1019.78
2023-05-04T01:20:23.834Z,1019.79
2023-05-04T01:21:24.138Z,1019.77
2023-05-04T01:22:24.311Z,1019.76
2023-05-04T01:23:24.503Z,1019.76
2023-05-04T01:24:24.710Z,1019.81
2023-05-04T01:25:24.893Z,1019.83
2023-05-04T01:26:25.070Z,1019.82
2023-05-04T01:27:25.291Z,1019.82
2023-05-04T01:28:25.530Z,1019.82
2023-05-04T01:29:25.684Z,1019.81
2023-05-04T01:30:25.889Z,1019.82
2023-05-04T01:31:26.222Z,1019.88
2023-05-04T01:32:26.252Z,1019.84
2023-05-04T01:33:26.398Z,1019.83
2023-05-04T01:34:26.552Z,1019.83
2023-05-04T01:35:26.839Z,1019.85
2023-05-04T01:36:27.030Z,1019.83
2023-05-04T01:37:27.216Z,1019.82
2023-05-04T01:38:27.417Z,1019.86
2023-05-04T01:39:27.594Z,1019.87
2023-05-04T01:40:27.766Z,1019.85
2023-05-04T01:41:28.055Z,1019.87
2023-05-04T01:42:28.230Z,1019.89
2023-05-04T01:43:28.419Z,1019.90
2023-05-04T01:44:28.577Z,1019.88
2023-05-04T01:45:28.900Z,1019.85
2023-05-04T01:46:29.091Z,1019.82
2023-05-04T01:47:29.273Z,1019.85
2023-05-04T01:48:29.421Z,1019.80
2023-05-04T01:49:29.723Z,1019.82
2023-05-04T01:50:29.916Z,1019.80
2023-05-04T01:51:30.205Z,1019.79
2023-05-04T01:52:30.371Z,1019.81
2023-05-04T01:53:30.548Z,1019.81
2023-05-04T01:54:30.750Z,1019.79
2023-05-04T01:55:30.909Z,1019.76
2023-05-04T01:56:31.092Z,1019.77
2023-05-04T01:57:31.293Z,1019.78
2023-05-04T01:58:31.642Z,1019.76
2023-05-04T01:59:31.707Z,1019.75
2023-05-04T02:00:31.991Z,1019.73
2023-05-04T02:01:32.318Z,1019.75
2023-05-04T02:02:32.519Z,1019.73
2023-05-04T02:03:32.827Z,1019.75
2023-05-04T02:04:32.942Z,1019.74
2023-05-04T02:05:33.223Z,1019.70
2023-05-04T02:06:33.398Z,1019.73
2023-05-04T02:07:33.670Z,1019.77
2023-05-04T02:08:33.839Z,1019.76
2023-05-04T02:09:34.162Z,1019.74
2023-05-04T02:10:34.317Z,1019.77
2023-05-04T02:11:34.517Z,1019.79
2023-05-04T02:12:34.733Z,1019.75
2023-05-04T02:13:34.900Z,1019.76
2023-05-04T02:14:35.058Z,1019.78
2023-05-04T02:15:35.362Z,1019.75
2023-05-04T02:16:35.563Z,1019.78
2023-05-04T02:17:35.801Z,1019.76
2023-05-04T02:18:36.037Z,1019.74
2023-05-04T02:19:36.199Z,1019.76
2023-05-04T02:20:36.372Z,1019.77
2023-05-04T02:21:36.551Z,1019.73
2023-05-04T02:22:36.736Z,1019.70
2023-05-04T02:23:36.932Z,1019.72
2023-05-04T02:24:37.095Z,1019.71
2023-05-04T02:25:37.278Z,1019.72
2023-05-04T02:26:37.464Z,1019.72
2023-05-04T02:27:37.661Z,1019.72
2023-05-04T02:28:37.824Z,1019.72
2023-05-04T02:29:38.015Z,1019.74
2023-05-04T02:30:38.179Z,1019.76
2023-05-04T02:31:38.538Z,1019.75
2023-05-04T02:32:38.750Z,1019.75
2023-05-04T02:33:38.901Z,1019.73
2023-05-04T02:34:39.083Z,1019.71
2023-05-04T02:35:39.360Z,1019.73
2023-05-04T02:36:39.541Z,1019.69
2023-05-04T02:37:39.764Z,1019.75
2023-05-04T02:38:39.982Z,1019.73
2023-05-04T02:39:40.146Z,1019.75
2023-05-04T02:40:40.421Z,1019.75
2023-05-04T02:41:40.608Z,1019.74
2023-05-04T02:42:40.808Z,1019.75
2023-05-04T02:43:41.000Z,1019.72
2023-05-04T02:44:41.199Z,1019.73
2023-05-04T02:45:41.402Z,1019.73
2023-05-04T02:46:41.544Z,1019.71
2023-05-04T02:47:41.948Z,1019.75
2023-05-04T02:48:42.115Z,1019.73
2023-05-04T02:49:42.281Z,1019.76
2023-05-04T02:50:42.471Z,1019.74
2023-05-04T02:51:42.671Z,1019.77
2023-05-04T02:52:42.910Z,1019.76
2023-05-04T02:53:43.084Z,1019.71
2023-05-04T02:54:43.294Z,1019.73
2023-05-04T02:55:43.566Z,1019.73
2023-05-04T02:56:43.838Z,1019.74
2023-05-04T02:57:44.131Z,1019.74
2023-05-04T02:58:44.307Z,1019.73
2023-05-04T02:59:44.568Z,1019.72
2023-05-04T03:00:44.746Z,1019.71
2023-05-04T03:01:45.051Z,1019.74
2023-05-04T03:02:45.256Z,1019.71
2023-05-04T03:03:45.487Z,1019.69
2023-05-04T03:04:45.681Z,1019.68
2023-05-04T03:05:45.890Z,1019.70
2023-05-04T03:06:46.074Z,1019.70
2023-05-04T03:07:46.312Z,1019.70
2023-05-04T03:08:46.478Z,1019.71
2023-05-04T03:09:47.864Z,1019.72
2023-05-04T03:10:47.021Z,1019.69
2023-05-04T03:11:47.320Z,1019.73
2023-05-04T03:12:47.533Z,1019.71
2023-05-04T03:13:47.698Z,1019.68
2023-05-04T03:14:47.916Z,1019.70
2023-05-04T03:15:48.124Z,1019.70
2023-05-04T03:16:48.384Z,1019.67
2023-05-04T03:17:48.664Z,1019.66
2023-05-04T03:18:48.832Z,1019.65
2023-05-04T03:19:49.013Z,1019.66
2023-05-04T03:20:49.178Z,1019.67
2023-05-04T03:21:49.480Z,1019.69
2023-05-04T03:22:49.691Z,1019.64
2023-05-04T03:23:49.889Z,1019.62
2023-05-04T03:24:50.060Z,1019.61
2023-05-04T03:25:50.263Z,1019.67
2023-05-04T03:26:50.453Z,1019.62
2023-05-04T03:27:50.640Z,1019.62
2023-05-04T03:28:50.845Z,1019.62
2023-05-04T03:29:51.039Z,1019.61
2023-05-04T03:30:51.228Z,1019.63
2023-05-04T03:31:51.482Z,1019.63
2023-05-04T03:32:51.719Z,1019.65
2023-05-04T03:33:51.914Z,1019.62
2023-05-04T03:34:52.122Z,1019.64
2023-05-04T03:35:52.317Z,1019.63
2023-05-04T03:36:52.516Z,1019.64
2023-05-04T03:37:52.727Z,1019.66
2023-05-04T03:38:52.895Z,1019.66
2023-05-04T03:39:53.085Z,1019.65
2023-05-04T03:40:53.288Z,1019.65
2023-05-04T03:41:53.583Z,1019.64
2023-05-04T03:42:53.724Z,1019.65
2023-05-04T03:43:54.046Z,1019.63
2023-05-04T03:44:54.217Z,1019.62
2023-05-04T03:45:54.583Z,1019.60
2023-05-04T03:46:54.731Z,1019.61
2023-05-04T03:47:55.042Z,1019.59
2023-05-04T03:48:55.207Z,1019.62
2023-05-04T03:49:55.396Z,1019.59
2023-05-04T03:50:55.581Z,1019.58
2023-05-04T03:51:55.763Z,1019.56
2023-05-04T03:52:55.950Z,1019.56
2023-05-04T03:53:56.122Z,1019.55
2023-05-04T03:54:56.311Z,1019.54
2023-05-04T03:55:56.477Z,1019.55
2023-05-04T03:56:56.672Z,1019.55
2023-05-04T03:57:56.840Z,1019.59
2023-05-04T03:58:57.045Z,1019.55
2023-05-04T03:59:57.949Z,1019.61
2023-05-04T04:00:57.428Z,1019.57
2023-05-04T04:01:57.737Z,1019.56
2023-05-04T04:02:57.868Z,1019.55
2023-05-04T04:03:58.170Z,1019.53
2023-05-04T04:04:58.412Z,1019.54
2023-05-04T04:05:58.537Z,1019.56
2023-05-04T04:06:58.738Z,1019.55
2023-05-04T04:07:58.929Z,1019.54
2023-05-04T04:08:59.120Z,1019.51
2023-05-04T04:09:59.305Z,1019.56
2023-05-04T04:10:59.503Z,1019.56
2023-05-04T04:11:59.675Z,1019.57
2023-05-04T04:12:59.917Z,1019.55
2023-05-04T04:14:00.090Z,1019.54
2023-05-04T04:15:00.295Z,1019.55
2023-05-04T04:16:00.542Z,1019.52
2023-05-04T04:17:00.711Z,1019.47
2023-05-04T04:18:00.956Z,1019.51
2023-05-04T04:19:01.164Z,1019.53
2023-05-04T04:20:01.342Z,1019.52
2023-05-04T04:21:01.565Z,1019.56
2023-05-04T04:22:01.735Z,1019.52
2023-05-04T04:23:01.913Z,1019.57
2023-05-04T04:24:02.207Z,1019.53
2023-05-04T04:25:02.385Z,1019.55
2023-05-04T04:26:02.715Z,1019.54
2023-05-04T04:27:02.876Z,1019.58
2023-05-04T04:28:03.085Z,1019.51
2023-05-04T04:29:03.269Z,1019.51
2023-05-04T04:30:03.684Z,1019.54
2023-05-04T04:31:03.738Z,1019.52
2023-05-04T04:32:03.914Z,1019.52
2023-05-04T04:33:04.112Z,1019.50
2023-05-04T04:34:04.393Z,1019.56
2023-05-04T04:35:04.558Z,1019.52
2023-05-04T04:36:04.737Z,1019.54
2023-05-04T04:37:04.930Z,1019.56
2023-05-04T04:38:05.138Z,1019.54
2023-05-04T04:39:05.317Z,1019.60
2023-05-04T04:40:05.721Z,1019.61
2023-05-04T04:41:05.808Z,1019.58
2023-05-04T04:42:05.953Z,1019.56
2023-05-04T04:43:06.136Z,1019.56
2023-05-04T04:44:06.317Z,1019.56
2023-05-04T04:45:06.499Z,1019.56
2023-05-04T04:46:06.684Z,1019.52
2023-05-04T04:47:06.963Z,1019.54
2023-05-04T04:48:07.196Z,1019.55
2023-05-04T04:49:07.280Z,1019.53
2023-05-04T04:50:07.837Z,1019.55
2023-05-04T04:51:07.806Z,1019.56
2023-05-04T04:52:08.092Z,1019.55
2023-05-04T04:53:08.316Z,1019.56
2023-05-04T04:54:08.494Z,1019.56
2023-05-04T04:55:08.707Z,1019.56
2023-05-04T04:56:08.918Z,1019.57
2023-05-04T04:57:09.113Z,1019.57
2023-05-04T04:58:09.311Z,1019.60
2023-05-04T04:59:09.459Z,1019.60
2023-05-04T05:00:09.700Z,1019.61
2023-05-04T05:01:09.848Z,1019.63
2023-05-04T05:02:10.065Z,1019.61
2023-05-04T05:03:10.305Z,1019.62
2023-05-04T05:04:10.513Z,1019.58
2023-05-04T05:05:10.690Z,1019.59
2023-05-04T05:06:10.893Z,1019.57
2023-05-04T05:07:11.083Z,1019.56
2023-05-04T05:08:11.251Z,1019.58
2023-05-04T05:09:11.439Z,1019.51
2023-05-04T05:10:11.617Z,1019.53
2023-05-04T05:11:11.778Z,1019.54
2023-05-04T05:12:12.073Z,1019.53
2023-05-04T05:13:12.365Z,1019.53
2023-05-04T05:14:12.462Z,1019.49
2023-05-04T05:15:12.747Z,1019.51
2023-05-04T05:16:12.886Z,1019.49
2023-05-04T05:17:13.072Z,1019.53
2023-05-04T05:18:13.240Z,1019.53
2023-05-04T05:19:13.431Z,1019.53
2023-05-04T05:20:13.604Z,1019.48
2023-05-04T05:21:13.787Z,1019.53
2023-05-04T05:22:14.111Z,1019.49
2023-05-04T05:23:14.263Z,1019.52
2023-05-04T05:24:14.538Z,1019.51
2023-05-04T05:25:14.710Z,1019.53
2023-05-04T05:26:14.985Z,1019.47
2023-05-04T05:28:12.546Z,1019.53
2023-05-04T05:29:12.653Z,1019.53
2023-05-04T05:30:12.760Z,1019.53
2023-05-04T05:31:12.875Z,1019.50
2023-05-04T05:32:12.948Z,1019.52
2023-05-04T05:33:13.071Z,1019.51
2023-05-04T05:34:13.135Z,1019.50
2023-05-04T05:35:13.243Z,1019.44
2023-05-04T05:36:13.461Z,1019.45
2023-05-04T05:37:13.540Z,1019.44
2023-05-04T05:38:13.647Z,1019.44
2023-05-04T05:39:13.754Z,1019.48
2023-05-04T05:40:13.852Z,1019.48
2023-05-04T05:41:13.964Z,1019.49
2023-05-04T05:42:14.058Z,1019.53
2023-05-04T05:43:14.160Z,1019.54
2023-05-04T05:44:14.268Z,1019.52
2023-05-04T05:45:14.388Z,1019.51
2023-05-04T05:46:14.520Z,1019.52
2023-05-04T05:47:14.599Z,1019.51
2023-05-04T05:48:14.694Z,1019.49
2023-05-04T05:49:14.800Z,1019.46
2023-05-04T05:50:14.907Z,1019.43
2023-05-04T05:51:15.106Z,1019.41
2023-05-04T05:52:15.203Z,1019.38
2023-05-04T05:53:15.288Z,1019.39
2023-05-04T05:54:15.451Z,1019.39
2023-05-04T05:55:15.584Z,1019.38
2023-05-04T05:56:15.639Z,1019.37
2023-05-04T05:57:15.720Z,1019.36
2023-05-04T05:58:15.827Z,1019.38
2023-05-04T05:59:15.961Z,1019.43
2023-05-04T06:00:16.026Z,1019.42
2023-05-04T06:01:16.096Z,1019.44
2023-05-04T06:02:16.318Z,1019.39
2023-05-04T06:03:16.421Z,1019.41
2023-05-04T06:04:16.678Z,1019.46
2023-05-04T06:05:16.611Z,1019.38
2023-05-04T06:06:16.792Z,1019.39
2023-05-04T06:07:16.896Z,1019.37
2023-05-04T06:08:16.976Z,1019.38
2023-05-04T06:09:17.065Z,1019.39
2023-05-04T06:10:17.177Z,1019.35
2023-05-04T06:11:17.260Z,1019.29
2023-05-04T06:12:17.338Z,1019.32
2023-05-04T06:13:17.422Z,1019.36
2023-05-04T06:14:17.493Z,1019.30
2023-05-04T06:15:17.551Z,1019.29
2023-05-04T06:16:17.626Z,1019.27
2023-05-04T06:17:17.663Z,1019.27
2023-05-04T06:18:17.818Z,1019.24
2023-05-04T06:19:17.861Z,1019.30
2023-05-04T06:20:17.916Z,1019.25
2023-05-04T06:21:17.928Z,1019.22
2023-05-04T06:22:17.996Z,1019.20
2023-05-04T06:23:18.040Z,1019.21
2023-05-04T06:24:18.098Z,1019.21
2023-05-04T06:25:18.124Z,1019.25
2023-05-04T06:26:18.285Z,1019.23
2023-05-04T06:27:18.324Z,1019.20
2023-05-04T06:28:18.451Z,1019.21
2023-05-04T06:29:18.527Z,1019.26
2023-05-04T06:30:18.560Z,1019.26
2023-05-04T06:31:18.647Z,1019.31
2023-05-04T06:32:18.703Z,1019.36
2023-05-04T06:33:18.727Z,1019.36
2023-05-04T06:34:18.771Z,1019.39
2023-05-04T06:35:18.788Z,1019.41
2023-05-04T06:36:18.848Z,1019.36
2023-05-04T06:37:18.846Z,1019.37
2023-05-04T06:38:18.887Z,1019.31
2023-05-04T06:39:18.903Z,1019.31
2023-05-04T06:40:18.944Z,1019.36
2023-05-04T06:41:18.948Z,1019.33
2023-05-04T06:42:18.969Z,1019.33
2023-05-04T06:43:18.967Z,1019.34
2023-05-04T06:44:19.011Z,1019.37
2023-05-04T06:45:19.010Z,1019.37
2023-05-04T06:46:19.182Z,1019.41
2023-05-04T06:47:19.173Z,1019.40
2023-05-04T06:48:19.193Z,1019.39
2023-05-04T06:49:19.226Z,1019.39
2023-05-04T06:50:19.232Z,1019.37
2023-05-04T06:51:19.216Z,1019.33
2023-05-04T06:52:19.232Z,1019.35
2023-05-04T06:53:19.214Z,1019.36
2023-05-04T06:54:19.272Z,1019.32
2023-05-04T06:55:19.277Z,1019.28
2023-05-04T06:56:19.273Z,1019.31
2023-05-04T06:57:19.270Z,1019.30
2023-05-04T06:58:19.285Z,1019.28
2023-05-04T06:59:19.299Z,1019.28
2023-05-04T07:00:19.302Z,1019.28
2023-05-04T07:01:19.357Z,1019.29
2023-05-04T07:02:19.340Z,1019.26
2023-05-04T07:03:19.357Z,1019.27
2023-05-04T07:04:19.372Z,1019.28
2023-05-04T07:05:19.375Z,1019.27
2023-05-04T07:06:19.363Z,1019.30
2023-05-04T07:07:19.366Z,1019.33
2023-05-04T07:08:19.371Z,1019.35
2023-05-04T07:09:19.386Z,1019.41
2023-05-04T07:10:19.451Z,1019.39
2023-05-04T07:11:19.440Z,1019.36
2023-05-04T07:12:19.432Z,1019.35
2023-05-04T07:13:19.601Z,1019.37
2023-05-04T07:14:19.493Z,1019.33
2023-05-04T07:15:19.463Z,1019.33
2023-05-04T07:16:19.529Z,1019.32
2023-05-04T07:17:19.415Z,1019.35
2023-05-04T07:18:19.397Z,1019.38
2023-05-04T07:19:19.416Z,1019.36
2023-05-04T07:20:19.406Z,1019.32
2023-05-04T07:22:19.422Z,1019.24
2023-05-04T07:23:19.474Z,1019.24
2023-05-04T07:24:19.439Z,1019.26
2023-05-04T07:25:19.425Z,1019.23
2023-05-04T07:26:19.397Z,1019.26
2023-05-04T07:27:19.372Z,1019.23
2023-05-04T07:28:19.338Z,1019.25
2023-05-04T07:29:19.285Z,1019.20
2023-05-04T07:30:19.257Z,1019.18
2023-05-04T07:31:19.245Z,1019.19
2023-05-04T07:32:19.331Z,1019.14
2023-05-04T07:33:19.263Z,1019.11
2023-05-04T07:34:20.067Z,1019.09
2023-05-04T07:35:19.172Z,1019.09
2023-05-04T07:36:19.174Z,1019.15
2023-05-04T07:37:19.146Z,1019.08
2023-05-04T07:38:19.141Z,1019.12
2023-05-04T07:39:19.101Z,1019.08
2023-05-04T07:40:19.073Z,1019.08
2023-05-04T07:41:19.032Z,1019.10
2023-05-04T07:42:19.016Z,1019.09
2023-05-04T07:43:18.952Z,1019.05
2023-05-04T07:44:18.915Z,1019.04
2023-05-04T07:45:18.868Z,1019.06
2023-05-04T07:46:18.905Z,1019.10
2023-05-04T07:47:18.847Z,1019.01
2023-05-04T07:48:18.849Z,1018.98
2023-05-04T07:49:18.782Z,1018.93
2023-05-04T07:50:18.736Z,1018.99
2023-05-04T07:51:18.699Z,1018.96
2023-05-04T07:52:18.671Z,1018.95
2023-05-04T07:53:18.622Z,1018.94
2023-05-04T07:54:19.908Z,1018.94
2023-05-04T07:55:18.544Z,1018.90
2023-05-04T07:56:18.698Z,1018.94
2023-05-04T07:57:18.512Z,1018.93
2023-05-04T07:58:18.461Z,1018.95
2023-05-04T07:59:18.416Z,1018.92
2023-05-04T08:00:18.376Z,1018.96
2023-05-04T08:01:18.349Z,1018.92
2023-05-04T08:02:18.368Z,1018.93
2023-05-04T08:03:18.317Z,1018.91
2023-05-04T08:04:18.964Z,1018.89
2023-05-04T08:05:19.156Z,1018.87
2023-05-04T08:06:18.247Z,1018.88
2023-05-04T08:07:18.219Z,1018.89
2023-05-04T08:08:18.170Z,1018.92
2023-05-04T08:09:18.227Z,1018.90
2023-05-04T08:10:18.095Z,1018.95
2023-05-04T08:11:20.530Z,1018.85
2023-05-04T08:12:18.082Z,1018.78
2023-05-04T08:13:18.086Z,1018.83
2023-05-04T08:14:18.006Z,1018.78
2023-05-04T08:15:17.950Z,1018.80
2023-05-04T08:16:17.878Z,1018.82
2023-05-04T08:17:17.836Z,1018.83
2023-05-04T08:18:17.770Z,1018.82
2023-05-04T08:19:17.730Z,1018.83
2023-05-04T08:20:17.669Z,1018.81
2023-05-04T08:21:17.616Z,1018.79
2023-05-04T08:22:17.543Z,1018.76
2023-05-04T08:23:17.617Z,1018.80
2023-05-04T08:24:17.451Z,1018.81
2023-05-04T08:25:17.386Z,1018.79
2023-05-04T08:26:17.315Z,1018.77
2023-05-04T08:27:17.261Z,1018.79
2023-05-04T08:28:17.188Z,1018.78
2023-05-04T08:29:17.121Z,1018.77
2023-05-04T08:30:17.114Z,1018.80
2023-05-04T08:31:17.082Z,1018.79
2023-05-04T08:32:17.000Z,1018.81
2023-05-04T08:33:16.946Z,1018.79
2023-05-04T08:34:16.867Z,1018.83
2023-05-04T08:35:16.805Z,1018.76
2023-05-04T08:36:16.738Z,1018.76
2023-05-04T08:37:16.690Z,1018.76
2023-05-04T08:38:16.634Z,1018.70
2023-05-04T08:39:16.539Z,1018.70
2023-05-04T08:40:16.476Z,1018.67
2023-05-04T08:41:16.439Z,1018.76
2023-05-04T08:42:16.390Z,1018.73
2023-05-04T08:43:16.302Z,1018.75
2023-05-04T08:44:16.224Z,1018.73
2023-05-04T08:45:16.150Z,1018.68
2023-05-04T08:46:16.225Z,1018.73
2023-05-04T08:47:16.065Z,1018.74
2023-05-04T08:48:15.985Z,1018.75
2023-05-04T08:49:15.936Z,1018.68
2023-05-04T08:50:15.856Z,1018.68
2023-05-04T08:51:15.850Z,1018.73
2023-05-04T08:52:15.786Z,1018.69
2023-05-04T08:53:15.719Z,1018.64
2023-05-04T08:54:15.679Z,1018.63
2023-05-04T08:55:15.579Z,1018.64
2023-05-04T08:56:15.507Z,1018.65
2023-05-04T08:57:15.516Z,1018.62
2023-05-04T08:58:15.480Z,1018.53
2023-05-04T08:59:15.411Z,1018.52
2023-05-04T09:00:15.333Z,1018.58
2023-05-04T09:01:15.307Z,1018.55
2023-05-04T09:02:15.222Z,1018.49
2023-05-04T09:03:15.206Z,1018.54
2023-05-04T09:04:15.107Z,1018.52
2023-05-04T09:05:15.035Z,1018.47
2023-05-04T09:06:14.980Z,1018.47
2023-05-04T09:07:14.917Z,1018.46
2023-05-04T09:08:14.857Z,1018.42
2023-05-04T09:09:14.789Z,1018.47
2023-05-04T09:10:14.677Z,1018.51
2023-05-04T09:11:14.622Z,1018.57
2023-05-04T09:12:14.537Z,1018.63
2023-05-04T09:13:14.589Z,1018.58
2023-05-04T09:14:14.494Z,1018.58
2023-05-04T09:15:15.226Z,1018.59
2023-05-04T09:16:14.804Z,1018.60
2023-05-04T09:17:14.382Z,1018.56
2023-05-04T09:18:15.093Z,1018.50
2023-05-04T09:19:14.167Z,1018.45
2023-05-04T09:20:14.078Z,1018.43
2023-05-04T09:21:14.043Z,1018.42
2023-05-04T09:22:13.997Z,1018.45
2023-05-04T09:23:13.896Z,1018.45
2023-05-04T09:24:13.811Z,1018.43
2023-05-04T09:25:13.688Z,1018.44
2023-05-04T09:26:13.597Z,1018.39
2023-05-04T09:27:13.523Z,1018.42
2023-05-04T09:28:19.843Z,1018.46
2023-05-04T09:29:14.313Z,1018.43
2023-05-04T09:30:13.232Z,1018.44
2023-05-04T09:31:13.162Z,1018.39
2023-05-04T09:32:13.126Z,1018.41
2023-05-04T09:33:13.008Z,1018.42
2023-05-04T09:34:12.902Z,1018.40
2023-05-04T09:35:25.300Z,1018.40
2023-05-04T09:36:13.704Z,1018.36
2023-05-04T09:37:12.624Z,1018.33
2023-05-04T09:38:12.506Z,1018.31
2023-05-04T09:39:12.422Z,1018.30
2023-05-04T09:40:12.315Z,1018.29
2023-05-04T09:41:12.218Z,1018.26
2023-05-04T09:42:12.111Z,1018.29
2023-05-04T09:43:12.003Z,1018.26
2023-05-04T09:44:11.910Z,1018.32
2023-05-04T09:45:11.812Z,1018.31
2023-05-04T09:46:11.773Z,1018.27
2023-05-04T09:47:11.685Z,1018.28
2023-05-04T09:48:11.604Z,1018.37
2023-05-04T09:49:11.496Z,1018.21
2023-05-04T09:50:11.414Z,1018.25
2023-05-04T09:51:11.321Z,1018.28
2023-05-04T09:52:11.222Z,1018.24
2023-05-04T09:53:11.131Z,1018.24
2023-05-04T09:54:11.069Z,1018.19
2023-05-04T09:55:10.982Z,1018.25
2023-05-04T09:56:10.897Z,1018.30
2023-05-04T09:57:10.823Z,1018.21
2023-05-04T09:58:10.767Z,1018.16
2023-05-04T09:59:10.697Z,1018.06
2023-05-04T10:00:10.629Z,1018.09
2023-05-04T10:01:10.559Z,1018.07
2023-05-04T10:02:18.810Z,1018.05
2023-05-04T10:03:11.438Z,1018.02
2023-05-04T10:04:10.341Z,1018.06
2023-05-04T10:05:10.326Z,1018.09
2023-05-04T10:06:10.206Z,1018.07
2023-05-04T10:07:10.128Z,1018.08
2023-05-04T10:08:10.058Z,1018.02
2023-05-04T10:09:09.991Z,1018.04
2023-05-04T10:10:09.916Z,1018.06
2023-05-04T10:11:09.824Z,1017.96
2023-05-04T10:12:09.739Z,1017.90
2023-05-04T10:13:09.695Z,1017.91
2023-05-04T10:14:09.617Z,1017.89
2023-05-04T10:15:09.507Z,1017.96
2023-05-04T10:16:09.469Z,1017.93
2023-05-04T10:17:09.641Z,1017.95
2023-05-04T10:18:09.241Z,1017.93
2023-05-04T10:19:09.178Z,1017.92
2023-05-04T10:20:09.106Z,1017.90
2023-05-04T10:21:08.989Z,1017.90
2023-05-04T10:22:08.909Z,1017.88
2023-05-04T10:23:08.845Z,1017.82
2023-05-04T10:24:08.785Z,1017.91
2023-05-04T10:25:08.733Z,1017.81
2023-05-04T10:26:08.613Z,1017.82
2023-05-04T10:27:08.533Z,1017.82
2023-05-04T10:28:08.454Z,1017.79
2023-05-04T10:29:08.385Z,1017.78
2023-05-04T10:30:08.312Z,1017.75
2023-05-04T10:31:08.221Z,1017.73
2023-05-04T10:32:08.200Z,1017.73
2023-05-04T10:33:08.194Z,1017.73
2023-05-04T10:34:08.061Z,1017.77
2023-05-04T10:35:08.184Z,1017.83
2023-05-04T10:36:07.953Z,1017.73
2023-05-04T10:37:07.886Z,1017.72
2023-05-04T10:38:07.805Z,1017.68
2023-05-04T10:39:07.718Z,1017.63
2023-05-04T10:40:08.082Z,1017.63
2023-05-04T10:41:07.610Z,1017.61
2023-05-04T10:42:07.735Z,1017.59
2023-05-04T10:43:07.477Z,1017.58
2023-05-04T10:44:07.407Z,1017.59
2023-05-04T10:45:07.431Z,1017.57
2023-05-04T10:46:07.278Z,1017.58
2023-05-04T10:47:07.216Z,1017.55
2023-05-04T10:48:07.131Z,1017.50
2023-05-04T10:49:07.111Z,1017.43
2023-05-04T10:50:07.033Z,1017.46
2023-05-04T10:51:06.975Z,1017.43
2023-05-04T10:52:06.901Z,1017.42
2023-05-04T10:53:06.821Z,1017.42
2023-05-04T10:54:06.724Z,1017.34
2023-05-04T10:55:06.902Z,1017.38
2023-05-04T10:56:06.609Z,1017.37
2023-05-04T10:57:06.558Z,1017.33
2023-05-04T10:58:06.474Z,1017.32
2023-05-04T10:59:06.397Z,1017.27
2023-05-04T11:00:06.317Z,1017.28
2023-05-04T11:01:06.279Z,1017.28
2023-05-04T11:02:06.249Z,1017.39
2023-05-04T11:03:06.316Z,1017.34
2023-05-04T11:04:06.113Z,1017.22
2023-05-04T11:05:06.351Z,1017.20
2023-05-04T11:06:05.956Z,1017.22
2023-05-04T11:07:05.894Z,1017.20
2023-05-04T11:08:05.860Z,1017.25
2023-05-04T11:09:05.803Z,1017.24
2023-05-04T11:10:05.711Z,1017.25
2023-05-04T11:11:05.670Z,1017.24
2023-05-04T11:12:05.617Z,1017.23
2023-05-04T11:13:06.852Z,1017.20
2023-05-04T11:14:05.480Z,1017.14
2023-05-04T11:15:05.673Z,1017.17
2023-05-04T11:16:05.426Z,1017.15
2023-05-04T11:17:07.446Z,1017.15
2023-05-04T11:18:06.283Z,1017.10
2023-05-04T11:19:06.205Z,1017.11
2023-05-04T11:20:05.149Z,1017.11
2023-05-04T11:21:05.076Z,1017.11
2023-05-04T11:22:05.007Z,1017.08
2023-05-04T11:23:04.924Z,1017.00
2023-05-04T11:24:04.852Z,1017.06
2023-05-04T11:25:04.970Z,1017.08
2023-05-04T11:26:04.669Z,1017.06
2023-05-04T11:27:04.587Z,1017.04
2023-05-04T11:28:14.743Z,1016.98
2023-05-04T11:29:06.209Z,1017.03
2023-05-04T11:30:04.532Z,1016.99
2023-05-04T11:31:06.178Z,1016.97
2023-05-04T11:32:04.492Z,1016.98
2023-05-04T11:33:04.487Z,1017.01
2023-05-04T11:34:04.373Z,1016.99
2023-05-04T11:35:06.893Z,1017.00
2023-05-04T11:36:04.272Z,1016.98
2023-05-04T11:37:04.207Z,1016.98
2023-05-04T11:38:04.176Z,1016.97
2023-05-04T11:39:04.139Z,1016.96
2023-05-04T11:40:04.093Z,1016.92
2023-05-04T11:41:04.029Z,1016.91
2023-05-04T11:42:03.964Z,1016.88
2023-05-04T11:43:03.948Z,1016.82
2023-05-04T11:44:03.850Z,1016.79
2023-05-04T11:45:04.028Z,1016.78
2023-05-04T11:46:03.798Z,1016.78
2023-05-04T11:47:03.688Z,1016.77
2023-05-04T11:48:03.666Z,1016.77
2023-05-04T11:49:03.587Z,1016.76
2023-05-04T11:50:03.555Z,1016.78
2023-05-04T11:51:03.486Z,1016.84
2023-05-04T11:52:03.449Z,1016.80
2023-05-04T11:53:03.371Z,1016.77
2023-05-04T11:54:03.314Z,1016.75
2023-05-04T11:55:03.301Z,1016.86
2023-05-04T11:56:03.158Z,1016.80
2023-05-04T11:57:03.067Z,1016.74
2023-05-04T11:58:03.017Z,1016.80
2023-05-04T11:59:02.966Z,1016.76
2023-05-04T12:00:02.889Z,1016.73
2023-05-04T12:01:02.870Z,1016.68
2023-05-04T12:02:02.810Z,1016.71
2023-05-04T12:03:02.926Z,1016.67
2023-05-04T12:04:02.905Z,1016.64
2023-05-04T12:05:02.758Z,1016.62
2023-05-04T12:06:02.796Z,1016.65
2023-05-04T12:07:02.630Z,1016.63
2023-05-04T12:08:02.607Z,1016.61